sensor_id;sensor_type;location;lat;lon;timestamp;P1;durP1;ratioP1;P2;durP2;ratioP2
4462;SDS011;2244;50.200;8.220;2024-02-14T00:01:32;26.60;;;2.77;;
4462;SDS011;2244;50.200;8.220;2024-02-14T00:04:00;25.23;;;3.00;;
4462;SDS011;2244;50.200;8.220;2024-02-14T00:06:28;24.13;;;2.87;;
4462;SDS011;2244;50.200;8.220;2024-02-14T00:08:55;24.67;;;2.70;;
4462;SDS011;2244;50.200;8.220;2024-02-14T00:11:23;26.13;;;3.20;;
4462;SDS011;2244;50.200;8.220;2024-02-14T00:13:50;21.60;;;2.40;;
4462;SDS011;2244;50.200;8.220;2024-02-14T00:16:18;23.80;;;2.93;;
4462;SDS011;2244;50.200;8.220;2024-02-14T00:18:45;25.87;;;2.80;;
4462;SDS011;2244;50.200;8.220;2024-02-14T00:21:13;26.17;;;2.90;;
4462;SDS011;2244;50.200;8.220;2024-02-14T00:23:40;25.30;;;3.00;;
4462;SDS011;2244;50.200;8.220;2024-02-14T00:26:08;25.50;;;3.10;;
4462;SDS011;2244;50.200;8.220;2024-02-14T00:28:35;27.40;;;2.50;;
4462;SDS011;2244;50.200;8.220;2024-02-14T00:31:04;26.00;;;3.00;;
4462;SDS011;2244;50.200;8.220;2024-02-14T00:33:32;22.50;;;2.77;;
4462;SDS011;2244;50.200;8.220;2024-02-14T00:36:00;25.03;;;2.83;;
4462;SDS011;2244;50.200;8.220;2024-02-14T00:38:28;21.97;;;2.70;;
4462;SDS011;2244;50.200;8.220;2024-02-14T00:40:56;23.33;;;2.50;;
4462;SDS011;2244;50.200;8.220;2024-02-14T00:43:24;24.97;;;3.00;;
4462;SDS011;2244;50.200;8.220;2024-02-14T00:45:51;22.30;;;2.60;;
4462;SDS011;2244;50.200;8.220;2024-02-14T00:48:19;22.77;;;2.60;;
4462;SDS011;2244;50.200;8.220;2024-02-14T00:50:46;23.60;;;2.70;;
4462;SDS011;2244;50.200;8.220;2024-02-14T00:53:14;22.67;;;2.37;;
4462;SDS011;2244;50.200;8.220;2024-02-14T00:55:41;22.03;;;2.40;;
4462;SDS011;2244;50.200;8.220;2024-02-14T00:58:09;23.17;;;2.93;;
4462;SDS011;2244;50.200;8.220;2024-02-14T01:00:36;21.43;;;2.67;;
4462;SDS011;2244;50.200;8.220;2024-02-14T01:03:06;22.10;;;2.50;;
4462;SDS011;2244;50.200;8.220;2024-02-14T01:05:34;22.97;;;2.70;;
4462;SDS011;2244;50.200;8.220;2024-02-14T01:08:02;22.77;;;2.40;;
4462;SDS011;2244;50.200;8.220;2024-02-14T01:10:30;24.13;;;2.67;;
4462;SDS011;2244;50.200;8.220;2024-02-14T01:12:57;22.73;;;2.90;;
4462;SDS011;2244;50.200;8.220;2024-02-14T01:15:24;24.40;;;3.10;;
4462;SDS011;2244;50.200;8.220;2024-02-14T01:17:52;22.83;;;2.53;;
4462;SDS011;2244;50.200;8.220;2024-02-14T01:20:19;22.60;;;2.73;;
4462;SDS011;2244;50.200;8.220;2024-02-14T01:22:47;23.70;;;3.03;;
4462;SDS011;2244;50.200;8.220;2024-02-14T01:25:14;23.00;;;2.80;;
4462;SDS011;2244;50.200;8.220;2024-02-14T01:27:42;24.07;;;2.67;;
4462;SDS011;2244;50.200;8.220;2024-02-14T01:30:10;22.47;;;2.73;;
4462;SDS011;2244;50.200;8.220;2024-02-14T01:32:37;22.03;;;2.70;;
4462;SDS011;2244;50.200;8.220;2024-02-14T01:35:06;23.60;;;2.70;;
4462;SDS011;2244;50.200;8.220;2024-02-14T01:37:34;25.20;;;3.30;;
4462;SDS011;2244;50.200;8.220;2024-02-14T01:40:01;24.43;;;3.50;;
4462;SDS011;2244;50.200;8.220;2024-02-14T01:42:29;25.33;;;3.50;;
4462;SDS011;2244;50.200;8.220;2024-02-14T01:44:57;24.20;;;3.27;;
4462;SDS011;2244;50.200;8.220;2024-02-14T01:47:24;26.57;;;3.90;;
4462;SDS011;2244;50.200;8.220;2024-02-14T01:49:52;23.50;;;3.00;;
4462;SDS011;2244;50.200;8.220;2024-02-14T01:52:22;23.20;;;2.90;;
4462;SDS011;2244;50.200;8.220;2024-02-14T01:54:49;22.80;;;3.30;;
4462;SDS011;2244;50.200;8.220;2024-02-14T01:57:19;24.70;;;3.23;;
4462;SDS011;2244;50.200;8.220;2024-02-14T01:59:46;24.53;;;3.30;;
4462;SDS011;2244;50.200;8.220;2024-02-14T02:02:15;23.97;;;3.67;;
4462;SDS011;2244;50.200;8.220;2024-02-14T02:04:43;23.10;;;3.00;;
4462;SDS011;2244;50.200;8.220;2024-02-14T02:07:11;24.10;;;3.23;;
4462;SDS011;2244;50.200;8.220;2024-02-14T02:09:38;25.37;;;3.30;;
4462;SDS011;2244;50.200;8.220;2024-02-14T02:12:05;23.10;;;2.90;;
4462;SDS011;2244;50.200;8.220;2024-02-14T02:14:34;23.63;;;3.00;;
4462;SDS011;2244;50.200;8.220;2024-02-14T02:17:02;21.80;;;2.73;;
4462;SDS011;2244;50.200;8.220;2024-02-14T02:19:31;22.40;;;3.33;;
4462;SDS011;2244;50.200;8.220;2024-02-14T02:22:00;26.93;;;3.40;;
4462;SDS011;2244;50.200;8.220;2024-02-14T02:24:27;25.80;;;3.23;;
4462;SDS011;2244;50.200;8.220;2024-02-14T02:26:55;26.33;;;3.67;;
4462;SDS011;2244;50.200;8.220;2024-02-14T02:29:23;23.30;;;3.07;;
4462;SDS011;2244;50.200;8.220;2024-02-14T02:31:51;23.83;;;3.50;;
4462;SDS011;2244;50.200;8.220;2024-02-14T02:34:19;23.13;;;3.13;;
4462;SDS011;2244;50.200;8.220;2024-02-14T02:36:46;22.70;;;3.00;;
4462;SDS011;2244;50.200;8.220;2024-02-14T02:39:15;25.53;;;3.37;;
4462;SDS011;2244;50.200;8.220;2024-02-14T02:41:43;25.73;;;3.30;;
4462;SDS011;2244;50.200;8.220;2024-02-14T02:44:12;25.03;;;3.67;;
4462;SDS011;2244;50.200;8.220;2024-02-14T02:46:39;23.10;;;3.27;;
4462;SDS011;2244;50.200;8.220;2024-02-14T02:49:07;24.17;;;3.53;;
4462;SDS011;2244;50.200;8.220;2024-02-14T02:51:35;23.83;;;3.70;;
4462;SDS011;2244;50.200;8.220;2024-02-14T02:54:02;22.97;;;3.57;;
4462;SDS011;2244;50.200;8.220;2024-02-14T02:56:30;23.73;;;3.27;;
4462;SDS011;2244;50.200;8.220;2024-02-14T02:58:59;25.77;;;3.23;;
4462;SDS011;2244;50.200;8.220;2024-02-14T03:01:28;24.63;;;3.40;;
4462;SDS011;2244;50.200;8.220;2024-02-14T03:03:57;23.87;;;3.67;;
4462;SDS011;2244;50.200;8.220;2024-02-14T03:06:25;22.17;;;3.00;;
4462;SDS011;2244;50.200;8.220;2024-02-14T03:08:53;28.77;;;3.83;;
4462;SDS011;2244;50.200;8.220;2024-02-14T03:11:22;23.50;;;3.40;;
4462;SDS011;2244;50.200;8.220;2024-02-14T03:13:51;26.40;;;3.50;;
4462;SDS011;2244;50.200;8.220;2024-02-14T03:16:19;22.93;;;3.20;;
4462;SDS011;2244;50.200;8.220;2024-02-14T03:18:46;22.73;;;3.10;;
4462;SDS011;2244;50.200;8.220;2024-02-14T03:21:14;23.50;;;3.33;;
4462;SDS011;2244;50.200;8.220;2024-02-14T03:23:42;22.50;;;2.70;;
4462;SDS011;2244;50.200;8.220;2024-02-14T03:26:11;22.00;;;2.80;;
4462;SDS011;2244;50.200;8.220;2024-02-14T03:28:38;25.23;;;3.20;;
4462;SDS011;2244;50.200;8.220;2024-02-14T03:31:06;22.40;;;3.00;;
4462;SDS011;2244;50.200;8.220;2024-02-14T03:33:33;23.23;;;3.53;;
4462;SDS011;2244;50.200;8.220;2024-02-14T03:36:01;24.80;;;2.80;;
4462;SDS011;2244;50.200;8.220;2024-02-14T03:38:29;21.83;;;3.10;;
4462;SDS011;2244;50.200;8.220;2024-02-14T03:40:57;25.33;;;2.80;;
4462;SDS011;2244;50.200;8.220;2024-02-14T03:43:25;22.93;;;2.60;;
4462;SDS011;2244;50.200;8.220;2024-02-14T03:45:52;23.97;;;3.00;;
4462;SDS011;2244;50.200;8.220;2024-02-14T03:48:21;24.57;;;3.43;;
4462;SDS011;2244;50.200;8.220;2024-02-14T03:50:48;24.53;;;3.23;;
4462;SDS011;2244;50.200;8.220;2024-02-14T03:53:16;27.13;;;3.23;;
4462;SDS011;2244;50.200;8.220;2024-02-14T03:55:43;23.53;;;3.43;;
4462;SDS011;2244;50.200;8.220;2024-02-14T03:58:11;23.50;;;3.67;;
4462;SDS011;2244;50.200;8.220;2024-02-14T04:00:41;22.10;;;3.60;;
4462;SDS011;2244;50.200;8.220;2024-02-14T04:03:13;24.70;;;3.80;;
4462;SDS011;2244;50.200;8.220;2024-02-14T04:05:40;22.40;;;3.30;;
4462;SDS011;2244;50.200;8.220;2024-02-14T04:08:08;22.80;;;3.73;;
4462;SDS011;2244;50.200;8.220;2024-02-14T04:10:36;28.83;;;4.10;;
4462;SDS011;2244;50.200;8.220;2024-02-14T04:13:04;25.20;;;3.70;;
4462;SDS011;2244;50.200;8.220;2024-02-14T04:15:32;23.90;;;3.67;;
4462;SDS011;2244;50.200;8.220;2024-02-14T04:17:59;24.27;;;3.90;;
4462;SDS011;2244;50.200;8.220;2024-02-14T04:20:30;23.93;;;3.73;;
4462;SDS011;2244;50.200;8.220;2024-02-14T04:22:58;23.13;;;4.00;;
4462;SDS011;2244;50.200;8.220;2024-02-14T04:25:25;24.57;;;3.80;;
4462;SDS011;2244;50.200;8.220;2024-02-14T04:27:53;23.63;;;3.90;;
4462;SDS011;2244;50.200;8.220;2024-02-14T04:30:20;26.97;;;4.50;;
4462;SDS011;2244;50.200;8.220;2024-02-14T04:35:23;26.67;;;4.27;;
4462;SDS011;2244;50.200;8.220;2024-02-14T04:37:51;24.73;;;4.10;;
4462;SDS011;2244;50.200;8.220;2024-02-14T04:40:19;25.70;;;4.30;;
4462;SDS011;2244;50.200;8.220;2024-02-14T04:42:46;25.07;;;4.10;;
4462;SDS011;2244;50.200;8.220;2024-02-14T04:45:14;24.60;;;3.73;;
4462;SDS011;2244;50.200;8.220;2024-02-14T04:47:41;26.30;;;4.60;;
4462;SDS011;2244;50.200;8.220;2024-02-14T04:50:09;22.10;;;4.07;;
4462;SDS011;2244;50.200;8.220;2024-02-14T04:52:37;25.37;;;4.47;;
4462;SDS011;2244;50.200;8.220;2024-02-14T04:55:04;25.90;;;5.30;;
4462;SDS011;2244;50.200;8.220;2024-02-14T04:57:32;30.37;;;4.40;;
4462;SDS011;2244;50.200;8.220;2024-02-14T05:00:01;24.23;;;4.23;;
4462;SDS011;2244;50.200;8.220;2024-02-14T05:02:30;27.50;;;4.70;;
4462;SDS011;2244;50.200;8.220;2024-02-14T05:04:58;28.10;;;3.90;;
4462;SDS011;2244;50.200;8.220;2024-02-14T05:07:25;28.67;;;4.10;;
4462;SDS011;2244;50.200;8.220;2024-02-14T05:09:53;26.63;;;5.00;;
4462;SDS011;2244;50.200;8.220;2024-02-14T05:12:22;30.97;;;4.60;;
4462;SDS011;2244;50.200;8.220;2024-02-14T05:14:50;25.20;;;4.57;;
4462;SDS011;2244;50.200;8.220;2024-02-14T05:17:17;27.90;;;4.83;;
4462;SDS011;2244;50.200;8.220;2024-02-14T05:19:45;29.17;;;4.90;;
4462;SDS011;2244;50.200;8.220;2024-02-14T05:22:12;25.17;;;5.30;;
4462;SDS011;2244;50.200;8.220;2024-02-14T05:24:40;27.83;;;5.13;;
4462;SDS011;2244;50.200;8.220;2024-02-14T05:27:07;25.27;;;4.50;;
4462;SDS011;2244;50.200;8.220;2024-02-14T05:29:35;25.10;;;5.73;;
4462;SDS011;2244;50.200;8.220;2024-02-14T05:32:03;29.57;;;5.77;;
4462;SDS011;2244;50.200;8.220;2024-02-14T05:34:30;28.97;;;5.07;;
4462;SDS011;2244;50.200;8.220;2024-02-14T05:36:58;26.37;;;4.97;;
4462;SDS011;2244;50.200;8.220;2024-02-14T05:39:26;30.83;;;5.33;;
4462;SDS011;2244;50.200;8.220;2024-02-14T05:41:53;26.77;;;5.03;;
4462;SDS011;2244;50.200;8.220;2024-02-14T05:44:21;25.03;;;4.43;;
4462;SDS011;2244;50.200;8.220;2024-02-14T05:46:49;28.13;;;4.70;;
4462;SDS011;2244;50.200;8.220;2024-02-14T05:49:17;30.30;;;5.30;;
4462;SDS011;2244;50.200;8.220;2024-02-14T05:51:44;31.57;;;4.80;;
4462;SDS011;2244;50.200;8.220;2024-02-14T05:54:12;24.77;;;4.40;;
4462;SDS011;2244;50.200;8.220;2024-02-14T05:56:39;27.57;;;5.23;;
4462;SDS011;2244;50.200;8.220;2024-02-14T05:59:06;24.70;;;4.13;;
4462;SDS011;2244;50.200;8.220;2024-02-14T06:01:34;31.50;;;4.73;;
4462;SDS011;2244;50.200;8.220;2024-02-14T06:04:02;26.67;;;4.93;;
4462;SDS011;2244;50.200;8.220;2024-02-14T06:06:29;29.07;;;4.03;;
4462;SDS011;2244;50.200;8.220;2024-02-14T06:08:57;25.57;;;4.67;;
4462;SDS011;2244;50.200;8.220;2024-02-14T06:11:25;27.73;;;4.73;;
4462;SDS011;2244;50.200;8.220;2024-02-14T06:13:53;25.30;;;4.80;;
4462;SDS011;2244;50.200;8.220;2024-02-14T06:16:20;25.13;;;5.53;;
4462;SDS011;2244;50.200;8.220;2024-02-14T06:18:47;28.23;;;4.70;;
4462;SDS011;2244;50.200;8.220;2024-02-14T06:21:15;26.63;;;5.10;;
4462;SDS011;2244;50.200;8.220;2024-02-14T06:23:43;26.03;;;5.00;;
4462;SDS011;2244;50.200;8.220;2024-02-14T06:26:12;26.00;;;4.97;;
4462;SDS011;2244;50.200;8.220;2024-02-14T06:28:40;25.97;;;4.40;;
4462;SDS011;2244;50.200;8.220;2024-02-14T06:31:08;24.93;;;4.60;;
4462;SDS011;2244;50.200;8.220;2024-02-14T06:33:36;24.77;;;4.97;;
4462;SDS011;2244;50.200;8.220;2024-02-14T06:36:04;26.97;;;4.50;;
4462;SDS011;2244;50.200;8.220;2024-02-14T06:38:37;27.27;;;5.63;;
4462;SDS011;2244;50.200;8.220;2024-02-14T06:41:01;29.80;;;5.13;;
4462;SDS011;2244;50.200;8.220;2024-02-14T06:43:29;23.63;;;4.80;;
4462;SDS011;2244;50.200;8.220;2024-02-14T06:45:56;26.60;;;5.10;;
4462;SDS011;2244;50.200;8.220;2024-02-14T06:48:24;26.90;;;4.90;;
4462;SDS011;2244;50.200;8.220;2024-02-14T06:50:51;26.60;;;5.30;;
4462;SDS011;2244;50.200;8.220;2024-02-14T06:53:19;25.13;;;4.83;;
4462;SDS011;2244;50.200;8.220;2024-02-14T06:55:46;30.73;;;5.50;;
4462;SDS011;2244;50.200;8.220;2024-02-14T06:58:14;24.57;;;5.13;;
4462;SDS011;2244;50.200;8.220;2024-02-14T07:00:41;25.17;;;5.17;;
4462;SDS011;2244;50.200;8.220;2024-02-14T07:03:09;27.07;;;5.67;;
4462;SDS011;2244;50.200;8.220;2024-02-14T07:05:36;26.10;;;4.70;;
4462;SDS011;2244;50.200;8.220;2024-02-14T07:08:04;25.27;;;4.90;;
4462;SDS011;2244;50.200;8.220;2024-02-14T07:10:32;24.53;;;5.07;;
4462;SDS011;2244;50.200;8.220;2024-02-14T07:12:59;23.63;;;4.60;;
4462;SDS011;2244;50.200;8.220;2024-02-14T07:15:27;26.67;;;5.20;;
4462;SDS011;2244;50.200;8.220;2024-02-14T07:17:57;23.73;;;4.70;;
4462;SDS011;2244;50.200;8.220;2024-02-14T07:20:26;25.60;;;4.90;;
4462;SDS011;2244;50.200;8.220;2024-02-14T07:22:53;27.87;;;5.60;;
4462;SDS011;2244;50.200;8.220;2024-02-14T07:25:22;27.97;;;5.07;;
4462;SDS011;2244;50.200;8.220;2024-02-14T07:27:50;25.93;;;5.33;;
4462;SDS011;2244;50.200;8.220;2024-02-14T07:30:19;29.73;;;5.23;;
4462;SDS011;2244;50.200;8.220;2024-02-14T07:32:47;25.03;;;5.20;;
4462;SDS011;2244;50.200;8.220;2024-02-14T07:35:14;26.80;;;4.40;;
4462;SDS011;2244;50.200;8.220;2024-02-14T07:37:42;25.17;;;4.80;;
4462;SDS011;2244;50.200;8.220;2024-02-14T07:40:10;23.03;;;4.90;;
4462;SDS011;2244;50.200;8.220;2024-02-14T07:42:39;26.67;;;5.40;;
4462;SDS011;2244;50.200;8.220;2024-02-14T07:45:07;26.03;;;4.80;;
4462;SDS011;2244;50.200;8.220;2024-02-14T07:47:34;23.43;;;4.70;;
4462;SDS011;2244;50.200;8.220;2024-02-14T07:50:02;27.30;;;5.33;;
4462;SDS011;2244;50.200;8.220;2024-02-14T07:52:29;25.33;;;5.37;;
4462;SDS011;2244;50.200;8.220;2024-02-14T07:54:59;28.67;;;5.33;;
4462;SDS011;2244;50.200;8.220;2024-02-14T07:57:27;23.90;;;5.00;;
4462;SDS011;2244;50.200;8.220;2024-02-14T07:59:55;23.90;;;4.47;;
4462;SDS011;2244;50.200;8.220;2024-02-14T08:02:22;25.93;;;4.83;;
4462;SDS011;2244;50.200;8.220;2024-02-14T08:04:50;24.63;;;4.70;;
4462;SDS011;2244;50.200;8.220;2024-02-14T08:07:19;23.37;;;4.50;;
4462;SDS011;2244;50.200;8.220;2024-02-14T08:09:46;24.93;;;4.87;;
4462;SDS011;2244;50.200;8.220;2024-02-14T08:12:14;25.00;;;4.37;;
4462;SDS011;2244;50.200;8.220;2024-02-14T08:14:41;24.50;;;4.23;;
4462;SDS011;2244;50.200;8.220;2024-02-14T08:17:09;25.70;;;4.97;;
4462;SDS011;2244;50.200;8.220;2024-02-14T08:19:36;24.97;;;4.50;;
4462;SDS011;2244;50.200;8.220;2024-02-14T08:22:04;22.80;;;4.00;;
4462;SDS011;2244;50.200;8.220;2024-02-14T08:24:32;25.20;;;4.60;;
4462;SDS011;2244;50.200;8.220;2024-02-14T08:26:59;23.53;;;4.10;;
4462;SDS011;2244;50.200;8.220;2024-02-14T08:29:27;23.50;;;4.47;;
4462;SDS011;2244;50.200;8.220;2024-02-14T08:31:55;25.70;;;4.90;;
4462;SDS011;2244;50.200;8.220;2024-02-14T08:34:23;26.17;;;5.10;;
4462;SDS011;2244;50.200;8.220;2024-02-14T08:36:50;23.90;;;4.67;;
4462;SDS011;2244;50.200;8.220;2024-02-14T08:39:18;26.57;;;4.90;;
4462;SDS011;2244;50.200;8.220;2024-02-14T08:44:16;23.17;;;4.17;;
4462;SDS011;2244;50.200;8.220;2024-02-14T08:46:45;26.03;;;5.30;;
4462;SDS011;2244;50.200;8.220;2024-02-14T08:49:14;24.53;;;4.80;;
4462;SDS011;2244;50.200;8.220;2024-02-14T08:51:43;23.30;;;4.87;;
4462;SDS011;2244;50.200;8.220;2024-02-14T08:54:12;24.20;;;4.23;;
4462;SDS011;2244;50.200;8.220;2024-02-14T08:59:11;24.70;;;4.90;;
4462;SDS011;2244;50.200;8.220;2024-02-14T09:01:39;22.03;;;4.27;;
4462;SDS011;2244;50.200;8.220;2024-02-14T09:04:07;23.93;;;4.57;;
4462;SDS011;2244;50.200;8.220;2024-02-14T09:06:38;27.53;;;5.30;;
4462;SDS011;2244;50.200;8.220;2024-02-14T09:09:16;22.33;;;4.13;;
4462;SDS011;2244;50.200;8.220;2024-02-14T09:11:45;22.30;;;4.10;;
4462;SDS011;2244;50.200;8.220;2024-02-14T09:14:13;22.37;;;4.43;;
4462;SDS011;2244;50.200;8.220;2024-02-14T09:16:40;23.57;;;4.50;;
4462;SDS011;2244;50.200;8.220;2024-02-14T09:19:08;23.90;;;4.40;;
4462;SDS011;2244;50.200;8.220;2024-02-14T09:21:36;25.10;;;4.53;;
4462;SDS011;2244;50.200;8.220;2024-02-14T09:24:04;25.97;;;4.77;;
4462;SDS011;2244;50.200;8.220;2024-02-14T09:26:32;24.17;;;4.53;;
4462;SDS011;2244;50.200;8.220;2024-02-14T09:29:01;23.23;;;3.73;;
4462;SDS011;2244;50.200;8.220;2024-02-14T09:31:29;24.07;;;4.27;;
4462;SDS011;2244;50.200;8.220;2024-02-14T09:33:56;27.33;;;3.97;;
4462;SDS011;2244;50.200;8.220;2024-02-14T09:36:25;21.90;;;3.70;;
4462;SDS011;2244;50.200;8.220;2024-02-14T09:38:56;24.83;;;4.33;;
4462;SDS011;2244;50.200;8.220;2024-02-14T09:41:37;23.40;;;5.97;;
4462;SDS011;2244;50.200;8.220;2024-02-14T09:43:57;23.50;;;5.50;;
4462;SDS011;2244;50.200;8.220;2024-02-14T09:46:24;22.20;;;4.23;;
4462;SDS011;2244;50.200;8.220;2024-02-14T09:48:57;24.67;;;4.30;;
4462;SDS011;2244;50.200;8.220;2024-02-14T09:51:28;23.43;;;4.60;;
4462;SDS011;2244;50.200;8.220;2024-02-14T09:53:55;21.33;;;3.70;;
4462;SDS011;2244;50.200;8.220;2024-02-14T09:56:24;23.30;;;4.80;;
4462;SDS011;2244;50.200;8.220;2024-02-14T09:58:52;24.63;;;4.87;;
4462;SDS011;2244;50.200;8.220;2024-02-14T10:01:24;22.70;;;4.10;;
4462;SDS011;2244;50.200;8.220;2024-02-14T10:03:53;24.00;;;4.40;;
4462;SDS011;2244;50.200;8.220;2024-02-14T10:06:20;24.83;;;4.00;;
4462;SDS011;2244;50.200;8.220;2024-02-14T10:08:49;22.60;;;3.83;;
4462;SDS011;2244;50.200;8.220;2024-02-14T10:11:20;22.27;;;3.97;;
4462;SDS011;2244;50.200;8.220;2024-02-14T10:13:48;23.27;;;3.80;;
4462;SDS011;2244;50.200;8.220;2024-02-14T10:16:17;22.77;;;4.30;;
4462;SDS011;2244;50.200;8.220;2024-02-14T10:18:47;24.33;;;4.47;;
4462;SDS011;2244;50.200;8.220;2024-02-14T10:21:16;23.10;;;4.13;;
4462;SDS011;2244;50.200;8.220;2024-02-14T10:23:46;23.03;;;3.50;;
4462;SDS011;2244;50.200;8.220;2024-02-14T10:26:16;22.90;;;3.60;;
4462;SDS011;2244;50.200;8.220;2024-02-14T10:28:44;26.80;;;3.70;;
4462;SDS011;2244;50.200;8.220;2024-02-14T10:31:13;23.40;;;3.10;;
4462;SDS011;2244;50.200;8.220;2024-02-14T10:33:41;24.40;;;4.27;;
4462;SDS011;2244;50.200;8.220;2024-02-14T10:36:08;24.13;;;3.83;;
4462;SDS011;2244;50.200;8.220;2024-02-14T10:38:46;22.23;;;3.30;;
4462;SDS011;2244;50.200;8.220;2024-02-14T10:41:17;23.50;;;3.47;;
4462;SDS011;2244;50.200;8.220;2024-02-14T10:43:44;22.60;;;3.10;;
4462;SDS011;2244;50.200;8.220;2024-02-14T10:46:22;24.50;;;3.30;;
4462;SDS011;2244;50.200;8.220;2024-02-14T10:48:56;21.70;;;2.83;;
4462;SDS011;2244;50.200;8.220;2024-02-14T10:51:23;22.23;;;3.40;;
4462;SDS011;2244;50.200;8.220;2024-02-14T10:53:52;22.67;;;3.20;;
4462;SDS011;2244;50.200;8.220;2024-02-14T10:56:22;22.37;;;3.10;;
4462;SDS011;2244;50.200;8.220;2024-02-14T10:58:50;25.50;;;3.03;;
4462;SDS011;2244;50.200;8.220;2024-02-14T11:01:19;23.53;;;3.40;;
4462;SDS011;2244;50.200;8.220;2024-02-14T11:03:49;22.53;;;3.40;;
4462;SDS011;2244;50.200;8.220;2024-02-14T11:06:17;24.50;;;3.70;;
4462;SDS011;2244;50.200;8.220;2024-02-14T11:08:55;22.73;;;2.93;;
4462;SDS011;2244;50.200;8.220;2024-02-14T11:11:13;25.33;;;4.17;;
4462;SDS011;2244;50.200;8.220;2024-02-14T11:13:42;22.90;;;3.30;;
4462;SDS011;2244;50.200;8.220;2024-02-14T11:16:12;22.03;;;2.90;;
4462;SDS011;2244;50.200;8.220;2024-02-14T11:18:41;21.90;;;3.30;;
4462;SDS011;2244;50.200;8.220;2024-02-14T11:21:18;22.17;;;3.30;;
4462;SDS011;2244;50.200;8.220;2024-02-14T11:23:37;22.03;;;3.03;;
4462;SDS011;2244;50.200;8.220;2024-02-14T11:26:05;23.03;;;3.10;;
4462;SDS011;2244;50.200;8.220;2024-02-14T11:28:36;22.90;;;3.10;;
4462;SDS011;2244;50.200;8.220;2024-02-14T11:31:03;23.30;;;3.60;;
4462;SDS011;2244;50.200;8.220;2024-02-14T11:33:32;24.13;;;2.80;;
4462;SDS011;2244;50.200;8.220;2024-02-14T11:36:08;22.00;;;2.83;;
4462;SDS011;2244;50.200;8.220;2024-02-14T11:38:31;22.00;;;2.63;;
4462;SDS011;2244;50.200;8.220;2024-02-14T11:40:58;24.80;;;3.00;;
4462;SDS011;2244;50.200;8.220;2024-02-14T11:43:26;21.33;;;2.30;;
4462;SDS011;2244;50.200;8.220;2024-02-14T11:45:53;23.60;;;3.20;;
4462;SDS011;2244;50.200;8.220;2024-02-14T11:48:21;23.20;;;2.80;;
4462;SDS011;2244;50.200;8.220;2024-02-14T11:50:51;21.50;;;2.77;;
4462;SDS011;2244;50.200;8.220;2024-02-14T11:53:19;23.03;;;3.23;;
4462;SDS011;2244;50.200;8.220;2024-02-14T11:55:47;22.33;;;3.17;;
4462;SDS011;2244;50.200;8.220;2024-02-14T11:58:15;24.27;;;2.93;;
4462;SDS011;2244;50.200;8.220;2024-02-14T12:00:43;22.07;;;2.60;;
4462;SDS011;2244;50.200;8.220;2024-02-14T12:03:12;22.40;;;2.93;;
4462;SDS011;2244;50.200;8.220;2024-02-14T12:05:39;22.67;;;2.97;;
4462;SDS011;2244;50.200;8.220;2024-02-14T12:08:09;22.03;;;2.60;;
4462;SDS011;2244;50.200;8.220;2024-02-14T12:10:37;22.80;;;2.60;;
4462;SDS011;2244;50.200;8.220;2024-02-14T12:13:06;22.47;;;2.53;;
4462;SDS011;2244;50.200;8.220;2024-02-14T12:15:44;21.77;;;2.40;;
4462;SDS011;2244;50.200;8.220;2024-02-14T12:18:13;22.13;;;2.40;;
4462;SDS011;2244;50.200;8.220;2024-02-14T12:20:41;25.57;;;2.63;;
4462;SDS011;2244;50.200;8.220;2024-02-14T12:23:16;24.00;;;2.60;;
4462;SDS011;2244;50.200;8.220;2024-02-14T12:25:45;21.70;;;2.60;;
4462;SDS011;2244;50.200;8.220;2024-02-14T12:28:16;21.20;;;2.13;;
4462;SDS011;2244;50.200;8.220;2024-02-14T12:30:51;21.77;;;2.20;;
4462;SDS011;2244;50.200;8.220;2024-02-14T12:33:21;22.97;;;2.47;;
4462;SDS011;2244;50.200;8.220;2024-02-14T12:35:52;24.93;;;2.87;;
4462;SDS011;2244;50.200;8.220;2024-02-14T12:38:20;22.00;;;2.00;;
4462;SDS011;2244;50.200;8.220;2024-02-14T12:40:49;21.07;;;1.87;;
4462;SDS011;2244;50.200;8.220;2024-02-14T12:43:19;21.73;;;2.40;;
4462;SDS011;2244;50.200;8.220;2024-02-14T12:45:47;22.67;;;2.10;;
4462;SDS011;2244;50.200;8.220;2024-02-14T12:48:21;21.40;;;1.90;;
4462;SDS011;2244;50.200;8.220;2024-02-14T12:50:44;21.27;;;2.07;;
4462;SDS011;2244;50.200;8.220;2024-02-14T12:53:13;21.23;;;2.10;;
4462;SDS011;2244;50.200;8.220;2024-02-14T12:55:43;21.60;;;1.50;;
4462;SDS011;2244;50.200;8.220;2024-02-14T12:58:11;21.23;;;2.13;;
4462;SDS011;2244;50.200;8.220;2024-02-14T13:00:39;21.63;;;2.30;;
4462;SDS011;2244;50.200;8.220;2024-02-14T13:03:06;21.03;;;2.10;;
4462;SDS011;2244;50.200;8.220;2024-02-14T13:05:34;20.80;;;1.97;;
4462;SDS011;2244;50.200;8.220;2024-02-14T13:08:02;21.23;;;2.30;;
4462;SDS011;2244;50.200;8.220;2024-02-14T13:10:30;21.37;;;2.50;;
4462;SDS011;2244;50.200;8.220;2024-02-14T13:12:57;22.63;;;2.30;;
4462;SDS011;2244;50.200;8.220;2024-02-14T13:15:26;22.33;;;2.40;;
4462;SDS011;2244;50.200;8.220;2024-02-14T13:17:54;22.30;;;2.40;;
4462;SDS011;2244;50.200;8.220;2024-02-14T13:20:24;23.17;;;2.43;;
4462;SDS011;2244;50.200;8.220;2024-02-14T13:22:51;21.60;;;2.50;;
4462;SDS011;2244;50.200;8.220;2024-02-14T13:25:19;21.00;;;2.30;;
4462;SDS011;2244;50.200;8.220;2024-02-14T13:27:46;21.87;;;3.00;;
4462;SDS011;2244;50.200;8.220;2024-02-14T13:30:14;22.63;;;3.33;;
4462;SDS011;2244;50.200;8.220;2024-02-14T13:32:42;23.43;;;3.57;;
4462;SDS011;2244;50.200;8.220;2024-02-14T13:35:09;22.60;;;3.47;;
4462;SDS011;2244;50.200;8.220;2024-02-14T13:37:39;23.47;;;3.53;;
4462;SDS011;2244;50.200;8.220;2024-02-14T13:40:07;23.40;;;3.50;;
4462;SDS011;2244;50.200;8.220;2024-02-14T13:42:36;22.73;;;3.33;;
4462;SDS011;2244;50.200;8.220;2024-02-14T13:45:07;21.50;;;3.60;;
4462;SDS011;2244;50.200;8.220;2024-02-14T13:47:38;22.30;;;3.07;;
4462;SDS011;2244;50.200;8.220;2024-02-14T13:50:10;22.70;;;3.30;;
4462;SDS011;2244;50.200;8.220;2024-02-14T13:52:38;21.73;;;3.20;;
4462;SDS011;2244;50.200;8.220;2024-02-14T13:55:06;22.63;;;3.70;;
4462;SDS011;2244;50.200;8.220;2024-02-14T13:57:35;23.63;;;3.43;;
4462;SDS011;2244;50.200;8.220;2024-02-14T14:00:04;21.60;;;3.47;;
4462;SDS011;2244;50.200;8.220;2024-02-14T14:02:32;22.77;;;3.90;;
4462;SDS011;2244;50.200;8.220;2024-02-14T14:05:00;23.93;;;3.97;;
4462;SDS011;2244;50.200;8.220;2024-02-14T14:07:28;23.20;;;3.80;;
4462;SDS011;2244;50.200;8.220;2024-02-14T14:09:56;22.10;;;4.13;;
4462;SDS011;2244;50.200;8.220;2024-02-14T14:12:24;22.80;;;4.47;;
4462;SDS011;2244;50.200;8.220;2024-02-14T14:14:51;23.20;;;4.00;;
4462;SDS011;2244;50.200;8.220;2024-02-14T14:17:19;22.27;;;3.57;;
4462;SDS011;2244;50.200;8.220;2024-02-14T14:19:46;22.50;;;3.67;;
4462;SDS011;2244;50.200;8.220;2024-02-14T14:22:14;22.10;;;3.70;;
4462;SDS011;2244;50.200;8.220;2024-02-14T14:24:42;22.77;;;3.80;;
4462;SDS011;2244;50.200;8.220;2024-02-14T14:27:10;22.30;;;3.77;;
4462;SDS011;2244;50.200;8.220;2024-02-14T14:29:41;23.10;;;4.27;;
4462;SDS011;2244;50.200;8.220;2024-02-14T14:32:09;24.40;;;4.10;;
4462;SDS011;2244;50.200;8.220;2024-02-14T14:34:36;24.27;;;5.50;;
4462;SDS011;2244;50.200;8.220;2024-02-14T14:37:04;25.63;;;4.90;;
4462;SDS011;2244;50.200;8.220;2024-02-14T14:39:32;23.70;;;4.43;;
4462;SDS011;2244;50.200;8.220;2024-02-14T14:42:00;24.20;;;5.30;;
4462;SDS011;2244;50.200;8.220;2024-02-14T14:44:27;24.67;;;5.40;;
4462;SDS011;2244;50.200;8.220;2024-02-14T14:46:56;24.83;;;5.80;;
4462;SDS011;2244;50.200;8.220;2024-02-14T14:49:24;24.67;;;5.67;;
4462;SDS011;2244;50.200;8.220;2024-02-14T14:51:51;24.87;;;5.73;;
4462;SDS011;2244;50.200;8.220;2024-02-14T14:54:19;25.70;;;5.60;;
4462;SDS011;2244;50.200;8.220;2024-02-14T14:56:52;24.50;;;5.33;;
4462;SDS011;2244;50.200;8.220;2024-02-14T14:59:17;24.30;;;5.20;;
4462;SDS011;2244;50.200;8.220;2024-02-14T15:01:45;24.63;;;5.77;;
4462;SDS011;2244;50.200;8.220;2024-02-14T15:04:13;23.60;;;4.73;;
4462;SDS011;2244;50.200;8.220;2024-02-14T15:06:40;25.13;;;5.37;;
4462;SDS011;2244;50.200;8.220;2024-02-14T15:09:08;25.17;;;5.73;;
4462;SDS011;2244;50.200;8.220;2024-02-14T15:11:36;24.10;;;4.90;;
4462;SDS011;2244;50.200;8.220;2024-02-14T15:14:13;24.00;;;5.07;;